createdAt,value
2018-08-13T00:00:02.107Z,2.63
2018-08-13T00:02:34.115Z,2.80
2018-08-13T00:05:06.135Z,3.40
2018-08-13T00:07:38.151Z,2.70
2018-08-13T00:10:10.138Z,3.03
2018-08-13T00:12:42.159Z,2.67
2018-08-13T00:15:14.172Z,3.20
2018-08-13T00:17:46.499Z,2.90
2018-08-13T00:20:18.542Z,2.80
2018-08-13T00:22:50.538Z,3.03
2018-08-13T00:25:22.514Z,3.20
2018-08-13T00:27:54.497Z,2.63
2018-08-13T00:30:26.475Z,2.60
2018-08-13T00:32:58.498Z,2.90
2018-08-13T00:35:30.486Z,3.10
2018-08-13T00:38:02.511Z,3.07
2018-08-13T00:40:34.484Z,2.50
2018-08-13T00:43:06.721Z,3.27
2018-08-13T00:45:38.739Z,2.90
2018-08-13T00:48:10.774Z,2.90
2018-08-13T00:50:42.778Z,2.80
2018-08-13T00:53:14.802Z,2.83
2018-08-13T00:55:46.827Z,3.40
2018-08-13T00:58:18.834Z,2.87
2018-08-13T01:00:50.802Z,3.27
2018-08-13T01:03:22.790Z,3.10
2018-08-13T01:05:54.815Z,2.77
2018-08-13T01:08:26.799Z,2.83
2018-08-13T01:10:58.831Z,3.30
2018-08-13T01:13:30.856Z,3.73
2018-08-13T01:16:02.851Z,3.03
2018-08-13T01:18:34.862Z,3.60
2018-08-13T01:21:06.871Z,3.47
2018-08-13T01:23:38.878Z,3.80
2018-08-13T01:26:10.931Z,3.83
2018-08-13T01:28:42.966Z,3.70
2018-08-13T01:31:14.988Z,3.87
2018-08-13T01:33:46.998Z,3.10
2018-08-13T01:36:19.018Z,3.50
2018-08-13T01:38:51.028Z,3.40
2018-08-13T01:41:23.053Z,3.00
2018-08-13T01:43:55.058Z,4.10
2018-08-13T01:46:27.049Z,3.70
2018-08-13T01:48:59.134Z,3.00
2018-08-13T01:51:31.132Z,3.47
2018-08-13T01:54:03.134Z,3.30
2018-08-13T01:56:35.131Z,2.90
2018-08-13T01:59:07.175Z,3.27
2018-08-13T02:01:39.179Z,3.17
2018-08-13T02:04:11.255Z,3.13
2018-08-13T02:06:43.271Z,3.23
2018-08-13T02:09:15.313Z,3.17
2018-08-13T02:11:47.374Z,2.70
2018-08-13T02:14:19.403Z,3.00
2018-08-13T02:16:51.419Z,2.57
2018-08-13T02:19:23.442Z,3.40
2018-08-13T02:21:55.787Z,2.63
2018-08-13T02:24:28.187Z,2.80
2018-08-13T02:27:00.202Z,3.30
2018-08-13T02:29:32.263Z,3.37
2018-08-13T02:32:04.274Z,3.33
2018-08-13T02:34:36.287Z,3.27
2018-08-13T02:37:08.286Z,3.00
2018-08-13T02:39:40.332Z,3.43
2018-08-13T02:42:12.334Z,3.43
2018-08-13T02:44:44.348Z,3.33
2018-08-13T02:47:16.343Z,3.87
2018-08-13T02:49:48.378Z,3.90
2018-08-13T02:52:20.439Z,4.10
2018-08-13T02:54:52.468Z,3.90
2018-08-13T02:57:24.478Z,3.90
2018-08-13T02:59:56.523Z,4.10
2018-08-13T03:02:28.525Z,3.87
2018-08-13T03:05:00.581Z,4.30
2018-08-13T03:07:32.604Z,3.90
2018-08-13T03:10:06.667Z,4.27
2018-08-13T03:12:38.689Z,4.40
2018-08-13T03:15:13.269Z,4.07
2018-08-13T03:17:45.256Z,4.70
2018-08-13T03:20:17.284Z,4.20
2018-08-13T03:22:49.262Z,4.00
2018-08-13T03:25:21.954Z,4.63
2018-08-13T03:27:53.960Z,4.50
2018-08-13T03:30:25.972Z,4.80
2018-08-13T03:32:57.988Z,4.33
2018-08-13T03:35:30.044Z,5.13
2018-08-13T03:38:02.094Z,4.70
2018-08-13T03:40:34.147Z,4.90
2018-08-13T03:43:06.171Z,4.83
2018-08-13T03:45:38.172Z,5.40
2018-08-13T03:48:10.200Z,4.80
2018-08-13T03:50:42.249Z,5.23
2018-08-13T03:53:14.242Z,4.70
2018-08-13T03:55:46.346Z,4.73
2018-08-13T03:58:18.338Z,5.73
2018-08-13T04:00:50.379Z,4.90
2018-08-13T04:03:22.375Z,4.97
2018-08-13T04:05:54.426Z,5.50
2018-08-13T04:08:26.440Z,4.90
2018-08-13T04:10:58.446Z,4.50
2018-08-13T04:13:30.467Z,4.87
2018-08-13T04:16:02.507Z,5.93
2018-08-13T04:18:34.575Z,5.27
2018-08-13T04:21:06.616Z,4.70
2018-08-13T04:23:38.630Z,6.53
2018-08-13T04:26:10.655Z,6.07
2018-08-13T04:28:42.726Z,5.47
2018-08-13T04:31:14.782Z,6.27
2018-08-13T04:33:46.782Z,5.80
2018-08-13T04:36:18.822Z,5.43
2018-08-13T04:38:50.896Z,4.90
2018-08-13T04:41:22.958Z,5.20
2018-08-13T04:43:54.950Z,5.33
2018-08-13T04:46:26.992Z,5.40
2018-08-13T04:48:58.986Z,5.70
2018-08-13T04:51:31.030Z,5.70
2018-08-13T04:54:03.200Z,6.40
2018-08-13T04:56:35.266Z,5.47
2018-08-13T04:59:07.234Z,5.67
2018-08-13T05:01:39.271Z,5.90
2018-08-13T05:04:11.270Z,5.33
2018-08-13T05:06:43.292Z,6.20
2018-08-13T05:09:15.295Z,6.63
2018-08-13T05:11:47.335Z,6.47
2018-08-13T05:14:19.367Z,5.57
2018-08-13T05:16:51.400Z,5.70
2018-08-13T05:19:23.423Z,6.63
2018-08-13T05:21:55.502Z,5.60
2018-08-13T05:24:27.534Z,5.60
2018-08-13T05:26:59.567Z,5.40
2018-08-13T05:29:31.563Z,5.83
2018-08-13T05:32:03.660Z,5.87
2018-08-13T05:34:35.654Z,5.00
2018-08-13T05:37:07.672Z,5.53
2018-08-13T05:39:39.707Z,5.30
2018-08-13T05:42:11.775Z,5.53
2018-08-13T05:44:43.780Z,5.20
2018-08-13T05:47:15.799Z,4.93
2018-08-13T05:49:47.887Z,5.63
2018-08-13T05:52:19.866Z,5.70
2018-08-13T05:54:51.901Z,5.00
2018-08-13T05:57:23.907Z,5.10
2018-08-13T05:59:55.904Z,4.70
2018-08-13T06:02:27.931Z,5.17
2018-08-13T06:04:59.981Z,4.93
2018-08-13T06:07:32.023Z,5.50
2018-08-13T06:10:05.447Z,4.40
2018-08-13T06:12:37.626Z,4.83
2018-08-13T06:15:11.421Z,5.40
2018-08-13T06:17:43.421Z,4.63
2018-08-13T06:20:15.469Z,4.40
2018-08-13T06:22:47.482Z,5.20
2018-08-13T06:25:19.515Z,4.80
2018-08-13T06:27:51.560Z,4.70
2018-08-13T06:30:23.584Z,4.37
2018-08-13T06:32:55.598Z,5.10
2018-08-13T06:35:27.695Z,4.80
2018-08-13T06:37:59.695Z,4.60
2018-08-13T06:40:31.784Z,5.03
2018-08-13T06:43:03.862Z,4.00
2018-08-13T06:45:35.932Z,3.90
2018-08-13T06:48:07.954Z,4.27
2018-08-13T06:50:39.941Z,4.70
2018-08-13T06:53:18.749Z,4.30
2018-08-13T06:55:50.747Z,4.50
2018-08-13T06:58:22.747Z,4.00
2018-08-13T07:00:54.827Z,3.90
2018-08-13T07:03:26.762Z,4.30
2018-08-13T07:05:58.808Z,4.20
2018-08-13T07:08:30.784Z,4.20
2018-08-13T07:11:02.795Z,4.30
2018-08-13T07:13:34.846Z,3.67
2018-08-13T07:16:06.848Z,3.83
2018-08-13T07:18:38.986Z,4.00
2018-08-13T07:21:10.979Z,4.03
2018-08-13T07:23:44.345Z,3.93
2018-08-13T07:26:16.387Z,4.07
2018-08-13T07:28:48.579Z,4.60
2018-08-13T07:31:20.563Z,4.17
2018-08-13T07:33:52.603Z,4.17
2018-08-13T07:36:24.590Z,3.90
2018-08-13T07:38:56.676Z,4.30
2018-08-13T07:41:28.631Z,4.53
2018-08-13T07:44:00.619Z,4.33
2018-08-13T07:46:32.611Z,4.17
2018-08-13T07:49:04.666Z,4.00
2018-08-13T07:51:36.672Z,4.13
2018-08-13T07:54:08.727Z,3.93
2018-08-13T07:56:40.766Z,4.30
2018-08-13T07:59:12.763Z,3.80
2018-08-13T08:01:44.763Z,4.03
2018-08-13T08:04:16.795Z,3.80
2018-08-13T08:06:48.806Z,4.90
2018-08-13T08:09:20.799Z,4.07
2018-08-13T08:11:52.870Z,3.90
2018-08-13T08:14:24.939Z,4.17
2018-08-13T08:16:56.991Z,4.33
2018-08-13T08:19:29.007Z,4.00
2018-08-13T08:22:01.132Z,3.40
2018-08-13T08:24:33.194Z,4.07
2018-08-13T08:27:05.593Z,3.50
2018-08-13T08:29:37.640Z,3.90
2018-08-13T08:32:09.660Z,4.30
2018-08-13T08:34:41.738Z,3.53
2018-08-13T08:37:13.794Z,3.67
2018-08-13T08:39:45.831Z,3.60
2018-08-13T08:42:17.879Z,3.37
2018-08-13T08:44:49.866Z,3.73
2018-08-13T08:47:21.867Z,4.07
2018-08-13T08:49:53.902Z,3.30
2018-08-13T08:52:25.935Z,3.70
2018-08-13T08:54:57.991Z,3.67
2018-08-13T08:57:30.024Z,4.50
2018-08-13T09:00:02.086Z,3.70
2018-08-13T09:02:34.085Z,3.73
2018-08-13T09:05:07.048Z,3.80
2018-08-13T09:07:39.832Z,3.73
2018-08-13T09:10:11.965Z,3.90
2018-08-13T09:12:44.039Z,3.20
2018-08-13T09:15:17.395Z,3.10
2018-08-13T09:18:01.105Z,3.43
2018-08-13T09:20:44.630Z,2.90
2018-08-13T09:23:27.978Z,3.10
2018-08-13T09:26:11.448Z,3.20
2018-08-13T09:28:54.845Z,3.30
2018-08-13T09:31:38.488Z,2.67
2018-08-13T09:34:20.906Z,2.70
2018-08-13T09:36:52.951Z,3.20
2018-08-13T09:39:24.966Z,2.90
2018-08-13T09:41:57.030Z,3.07
2018-08-13T09:44:29.063Z,2.90
2018-08-13T09:47:01.619Z,2.70
2018-08-13T09:49:33.686Z,2.60
2018-08-13T09:52:06.052Z,3.10
2018-08-13T09:54:38.074Z,2.80
2018-08-13T09:57:10.085Z,2.80
2018-08-13T09:59:42.175Z,2.60
2018-08-13T10:02:14.230Z,2.70
2018-08-13T10:04:46.474Z,2.80
2018-08-13T10:07:18.478Z,2.67
2018-08-13T10:09:50.495Z,2.77
2018-08-13T10:12:22.504Z,2.37
2018-08-13T10:14:54.532Z,2.60
2018-08-13T10:17:26.595Z,2.40
2018-08-13T10:19:58.608Z,2.50
2018-08-13T10:22:30.633Z,2.10
2018-08-13T10:25:03.200Z,2.23
2018-08-13T10:27:35.232Z,2.30
2018-08-13T10:30:08.560Z,2.40
2018-08-13T10:32:40.795Z,2.10
2018-08-13T10:35:12.846Z,1.93
2018-08-13T10:37:44.874Z,2.00
2018-08-13T10:40:18.034Z,2.07
2018-08-13T10:42:50.069Z,2.10
2018-08-13T10:45:22.101Z,1.80
2018-08-13T10:47:54.124Z,1.87
2018-08-13T10:50:26.221Z,2.27
2018-08-13T10:52:58.253Z,2.60
2018-08-13T10:55:30.316Z,2.17
2018-08-13T10:58:02.380Z,2.40
2018-08-13T11:00:34.395Z,1.90
2018-08-13T11:03:06.437Z,2.10
2018-08-13T11:05:38.455Z,1.90
2018-08-13T11:08:10.487Z,1.90
2018-08-13T11:10:42.540Z,2.27
2018-08-13T11:13:14.641Z,1.90
2018-08-13T11:15:46.630Z,2.17
2018-08-13T11:18:18.688Z,2.20
2018-08-13T11:20:50.735Z,2.30
2018-08-13T11:23:22.791Z,2.40
2018-08-13T11:25:54.811Z,2.40
2018-08-13T11:28:26.869Z,2.60
2018-08-13T11:30:58.914Z,2.20
2018-08-13T11:33:30.948Z,2.30
2018-08-13T11:36:03.003Z,2.60
2018-08-13T11:38:35.045Z,2.57
2018-08-13T11:41:07.066Z,2.40
2018-08-13T11:43:39.151Z,2.50
2018-08-13T11:46:11.235Z,2.40
2018-08-13T11:48:43.289Z,2.17
2018-08-13T11:51:15.322Z,2.20
2018-08-13T11:53:48.196Z,2.27
2018-08-13T11:56:20.259Z,2.00
2018-08-13T11:58:52.262Z,2.20
2018-08-13T12:01:24.284Z,2.10
2018-08-13T12:03:56.298Z,2.20
2018-08-13T12:06:28.299Z,2.30
2018-08-13T12:09:00.340Z,2.10
2018-08-13T12:11:32.358Z,2.17
2018-08-13T12:14:04.551Z,1.90
2018-08-13T12:16:36.833Z,1.87
2018-08-13T12:19:08.886Z,2.50
2018-08-13T12:21:40.908Z,2.60
2018-08-13T12:24:12.882Z,2.60
2018-08-13T12:26:44.976Z,2.20
2018-08-13T12:29:16.971Z,1.93
2018-08-13T12:31:48.999Z,2.20
2018-08-13T12:34:21.026Z,2.20
2018-08-13T12:36:57.639Z,2.17
2018-08-13T12:39:29.633Z,2.47
2018-08-13T12:42:01.679Z,1.90
2018-08-13T12:44:40.590Z,2.40
2018-08-13T12:47:12.582Z,2.20
2018-08-13T12:49:44.622Z,2.70
2018-08-13T12:52:16.615Z,2.73
2018-08-13T12:54:48.671Z,2.90
2018-08-13T12:57:20.707Z,2.87
2018-08-13T12:59:52.751Z,2.77
2018-08-13T13:02:24.751Z,2.40
2018-08-13T13:04:56.814Z,3.00
2018-08-13T13:07:28.905Z,2.27
2018-08-13T13:10:00.924Z,2.80
2018-08-13T13:12:32.911Z,2.40
2018-08-13T13:15:06.784Z,2.70
2018-08-13T13:17:39.199Z,2.90
2018-08-13T13:20:14.126Z,2.50
2018-08-13T13:22:46.599Z,2.67
2018-08-13T13:25:19.087Z,2.60
2018-08-13T13:27:51.131Z,2.40
2018-08-13T13:30:23.176Z,2.40
2018-08-13T13:32:55.267Z,2.80
2018-08-13T13:35:27.342Z,3.00
2018-08-13T13:37:59.378Z,2.80
2018-08-13T13:40:31.632Z,2.73
2018-08-13T13:43:03.543Z,2.77
2018-08-13T13:45:35.614Z,2.80
2018-08-13T13:48:07.634Z,2.80
2018-08-13T13:50:39.729Z,3.00
2018-08-13T13:53:11.768Z,2.40
2018-08-13T13:55:43.810Z,2.00
2018-08-13T13:58:15.810Z,2.10
2018-08-13T14:00:47.883Z,2.40
2018-08-13T14:03:19.937Z,1.90
2018-08-13T14:05:52.050Z,1.83
2018-08-13T14:08:24.220Z,2.37
2018-08-13T14:10:56.307Z,2.50
2018-08-13T14:13:28.331Z,2.50
2018-08-13T14:16:00.354Z,2.53
2018-08-13T14:18:32.409Z,2.20
2018-08-13T14:21:04.542Z,2.40
2018-08-13T14:23:36.555Z,1.90
2018-08-13T14:26:08.682Z,2.63
2018-08-13T14:28:40.767Z,2.50
2018-08-13T14:31:12.802Z,2.37
2018-08-13T14:33:44.802Z,2.43
2018-08-13T14:36:16.861Z,2.10
2018-08-13T14:38:48.875Z,2.67
2018-08-13T14:41:20.918Z,2.27
2018-08-13T14:43:52.930Z,2.33
2018-08-13T14:46:24.904Z,2.70
2018-08-13T14:48:56.882Z,2.53
2018-08-13T14:51:28.907Z,2.27
2018-08-13T14:54:02.192Z,2.30
2018-08-13T14:56:34.229Z,2.63
2018-08-13T14:59:06.527Z,2.50
2018-08-13T15:01:38.685Z,2.63
2018-08-13T15:04:10.718Z,2.30
2018-08-13T15:06:42.764Z,2.23
2018-08-13T15:09:14.753Z,2.70
2018-08-13T15:11:46.806Z,2.50
2018-08-13T15:14:18.814Z,2.70
2018-08-13T15:16:50.859Z,3.00
2018-08-13T15:19:22.949Z,2.90
2018-08-13T15:21:54.992Z,2.30
2018-08-13T15:24:27.016Z,2.67
2018-08-13T15:26:59.071Z,2.73
2018-08-13T15:29:31.316Z,2.90
2018-08-13T15:32:03.371Z,2.70
2018-08-13T15:34:35.386Z,2.60
2018-08-13T15:37:07.482Z,2.47
2018-08-13T15:39:39.520Z,2.20
2018-08-13T15:42:11.560Z,2.23
2018-08-13T15:44:43.626Z,2.30
2018-08-13T15:47:15.672Z,2.40
2018-08-13T15:49:47.757Z,2.10
2018-08-13T15:52:19.866Z,2.07
2018-08-13T15:54:52.296Z,2.60
2018-08-13T15:57:24.382Z,2.20
2018-08-13T15:59:56.411Z,2.60
2018-08-13T16:02:32.946Z,2.00
2018-08-13T16:05:07.372Z,2.13
2018-08-13T16:07:39.479Z,2.10
2018-08-13T16:10:12.992Z,2.70
2018-08-13T16:12:45.388Z,2.23
2018-08-13T16:15:17.383Z,2.50
2018-08-13T16:17:49.432Z,2.70
2018-08-13T16:20:21.730Z,3.00
2018-08-13T16:22:53.775Z,2.83
2018-08-13T16:25:25.888Z,2.57
2018-08-13T16:27:58.060Z,2.90
2018-08-13T16:30:30.987Z,3.07
2018-08-13T16:33:03.347Z,3.20
2018-08-13T16:35:35.455Z,3.40
2018-08-13T16:38:07.606Z,4.50
2018-08-13T16:40:39.776Z,3.70
2018-08-13T16:43:13.922Z,3.23
2018-08-13T16:45:46.027Z,3.50
2018-08-13T16:48:18.149Z,3.70
2018-08-13T16:50:50.225Z,3.30
2018-08-13T16:53:22.285Z,3.97
2018-08-13T16:55:54.342Z,4.30
2018-08-13T16:58:26.399Z,3.53
2018-08-13T17:00:58.450Z,4.03
2018-08-13T17:03:30.535Z,4.40
2018-08-13T17:06:02.607Z,4.20
2018-08-13T17:08:34.761Z,4.30
2018-08-13T17:11:06.955Z,4.13
2018-08-13T17:13:39.144Z,4.30
2018-08-13T17:16:11.304Z,3.83
2018-08-13T17:18:43.320Z,3.57
2018-08-13T17:21:15.447Z,4.20
2018-08-13T17:23:47.429Z,4.33
2018-08-13T17:26:19.535Z,3.93
2018-08-13T17:28:51.712Z,3.93
2018-08-13T17:31:23.735Z,4.40
2018-08-13T17:33:55.895Z,4.70
2018-08-13T17:36:27.910Z,4.30
2018-08-13T17:38:59.952Z,4.20
2018-08-13T17:41:32.254Z,4.90
2018-08-13T17:44:04.690Z,4.63
2018-08-13T17:46:36.859Z,5.07
2018-08-13T17:49:09.059Z,4.60
2018-08-13T17:51:41.195Z,4.70
2018-08-13T17:54:13.302Z,4.20
2018-08-13T17:56:45.434Z,4.63
2018-08-13T17:59:17.424Z,4.93
2018-08-13T18:01:49.432Z,4.40
2018-08-13T18:04:21.431Z,4.83
2018-08-13T18:06:53.557Z,4.43
2018-08-13T18:09:26.723Z,4.40
2018-08-13T18:11:58.874Z,4.13
2018-08-13T18:14:30.927Z,5.03
2018-08-13T18:17:03.047Z,4.73
2018-08-13T18:19:35.066Z,5.90
2018-08-13T18:22:07.089Z,5.33
2018-08-13T18:24:39.110Z,6.00
2018-08-13T18:27:11.088Z,5.40
2018-08-13T18:32:21.956Z,4.80
2018-08-13T18:34:54.071Z,5.23
2018-08-13T18:37:26.111Z,4.60
2018-08-13T18:39:58.198Z,4.83
2018-08-13T18:42:30.202Z,5.70
2018-08-13T18:45:02.351Z,6.37
2018-08-13T18:47:34.441Z,5.27
2018-08-13T18:50:10.323Z,5.20
2018-08-13T18:52:42.952Z,5.27
2018-08-13T18:55:16.348Z,5.77
2018-08-13T18:57:48.708Z,5.30
2018-08-13T19:00:29.460Z,5.33
2018-08-13T19:03:01.695Z,5.70
2018-08-13T19:05:34.195Z,6.00
2018-08-13T19:08:06.244Z,5.70
2018-08-13T19:10:38.285Z,5.77
2018-08-13T19:13:10.286Z,5.53
2018-08-13T19:15:42.295Z,6.07
2018-08-13T19:18:14.345Z,6.57
2018-08-13T19:20:46.379Z,5.87
2018-08-13T19:23:18.458Z,6.37
2018-08-13T19:25:51.542Z,6.13
2018-08-13T19:28:23.611Z,5.87
2018-08-13T19:30:55.608Z,5.93
2018-08-13T19:33:27.687Z,6.10
2018-08-13T19:35:59.601Z,5.90
2018-08-13T19:38:31.629Z,5.40
2018-08-13T19:41:03.649Z,6.20
2018-08-13T19:43:35.674Z,6.47
2018-08-13T19:46:07.740Z,7.47
2018-08-13T19:48:39.711Z,7.10
2018-08-13T19:51:11.734Z,7.80
2018-08-13T19:53:43.737Z,8.10
2018-08-13T19:56:15.720Z,8.77
2018-08-13T19:58:47.751Z,9.10
2018-08-13T20:01:19.751Z,8.53
2018-08-13T20:03:51.767Z,8.77
2018-08-13T20:06:23.792Z,8.47
2018-08-13T20:08:55.833Z,7.70
2018-08-13T20:11:27.822Z,8.30
2018-08-13T20:13:59.807Z,6.20
2018-08-13T20:16:31.881Z,6.17
2018-08-13T20:19:03.895Z,4.60
2018-08-13T20:21:35.897Z,6.37
2018-08-13T20:24:07.886Z,6.83
2018-08-13T20:26:39.944Z,7.20
2018-08-13T20:29:12.259Z,7.10
2018-08-13T20:31:44.294Z,6.90
2018-08-13T20:34:16.379Z,7.07
2018-08-13T20:36:48.482Z,6.63
2018-08-13T20:39:20.491Z,7.20
2018-08-13T20:41:52.486Z,7.57
2018-08-13T20:44:24.572Z,7.23
2018-08-13T20:46:56.599Z,8.53
2018-08-13T20:49:28.638Z,6.90
2018-08-13T20:52:00.639Z,7.37
2018-08-13T20:54:33.187Z,6.90
2018-08-13T20:57:05.231Z,8.20
2018-08-13T20:59:37.249Z,7.97
2018-08-13T21:02:09.248Z,8.03
2018-08-13T21:04:41.253Z,7.67
2018-08-13T21:07:15.347Z,7.10
2018-08-13T21:09:47.323Z,8.33
2018-08-13T21:12:19.321Z,7.40
2018-08-13T21:14:51.344Z,6.70
2018-08-13T21:17:23.387Z,7.53
2018-08-13T21:19:55.422Z,7.40
2018-08-13T21:22:27.460Z,7.20
2018-08-13T21:27:57.776Z,6.53
2018-08-13T21:30:29.768Z,7.00
2018-08-13T21:33:01.802Z,6.97
2018-08-13T21:35:33.770Z,6.60
2018-08-13T21:38:05.788Z,6.70
2018-08-13T21:40:37.772Z,7.27
2018-08-13T21:43:09.815Z,6.30
2018-08-13T21:45:41.823Z,6.97
2018-08-13T21:48:13.851Z,7.47
2018-08-13T21:50:45.851Z,6.80
2018-08-13T21:53:17.864Z,6.53
2018-08-13T21:55:49.852Z,7.77
2018-08-13T21:58:21.875Z,7.60
2018-08-13T22:00:59.629Z,7.03
2018-08-13T22:03:31.689Z,7.43
2018-08-13T22:06:03.710Z,8.30
2018-08-13T22:08:35.719Z,7.23
2018-08-13T22:11:08.543Z,7.40
2018-08-13T22:13:40.542Z,7.90
2018-08-13T22:16:12.499Z,8.57
2018-08-13T22:18:44.491Z,7.93
2018-08-13T22:21:16.511Z,8.13
2018-08-13T22:24:00.244Z,8.73
2018-08-13T22:26:32.303Z,8.60
2018-08-13T22:29:04.332Z,7.63
2018-08-13T22:31:36.481Z,7.03
2018-08-13T22:34:08.898Z,7.77
2018-08-13T22:36:40.931Z,6.73
2018-08-13T22:39:12.966Z,7.63
2018-08-13T22:41:45.018Z,6.90
2018-08-13T22:44:17.043Z,7.40
2018-08-13T22:46:49.099Z,8.07
2018-08-13T22:49:21.306Z,8.10
2018-08-13T22:51:53.355Z,7.10
2018-08-13T22:54:25.438Z,8.30
2018-08-13T22:56:57.454Z,8.00
2018-08-13T22:59:29.505Z,7.67
2018-08-13T23:02:01.583Z,8.37
2018-08-13T23:04:33.606Z,7.00
2018-08-13T23:07:05.914Z,7.60
2018-08-13T23:09:37.944Z,7.70
2018-08-13T23:12:10.307Z,7.20
2018-08-13T23:14:42.433Z,7.47
2018-08-13T23:17:14.468Z,7.70
2018-08-13T23:19:46.511Z,8.70
2018-08-13T23:23:02.508Z,7.70
2018-08-13T23:25:35.586Z,8.17
2018-08-13T23:28:09.575Z,8.40
2018-08-13T23:30:41.582Z,9.20
2018-08-13T23:33:13.603Z,8.00
2018-08-13T23:35:45.623Z,8.30
2018-08-13T23:38:17.644Z,8.93
2018-08-13T23:40:49.648Z,9.07
2018-08-13T23:43:21.660Z,9.97
2018-08-13T23:45:53.664Z,9.90
2018-08-13T23:48:25.688Z,9.93
2018-08-13T23:50:57.698Z,9.80
2018-08-13T23:53:29.706Z,9.40
2018-08-13T23:56:01.745Z,11.90
2018-08-13T23:58:33.781Z,9.50
